createdAt,value
2018-06-20T00:01:16.718Z,95025.73
2018-06-20T00:03:45.519Z,95026.68
2018-06-20T00:06:14.144Z,95021.48
2018-06-20T00:08:50.762Z,95021.03
2018-06-20T00:11:20.428Z,95026.38
2018-06-20T00:13:49.080Z,95019.54
2018-06-20T00:16:17.727Z,95019.30
2018-06-20T00:18:46.427Z,95022.29
2018-06-20T00:21:15.185Z,95023.36
2018-06-20T00:23:43.883Z,95025.09
2018-06-20T00:26:12.568Z,95024.69
2018-06-20T00:28:41.355Z,95027.09
2018-06-20T00:31:10.104Z,95029.04
2018-06-20T00:33:38.822Z,95032.53
2018-06-20T00:36:07.466Z,95029.27
2018-06-20T00:38:36.062Z,95036.42
2018-06-20T00:41:04.716Z,95035.30
2018-06-20T00:43:33.374Z,95031.59
2018-06-20T00:46:02.058Z,95032.61
2018-06-20T00:48:30.698Z,95029.95
2018-06-20T00:50:59.338Z,95025.53
2018-06-20T00:53:28.020Z,95022.04
2018-06-20T00:56:07.960Z,95024.01
2018-06-20T00:58:36.604Z,95022.86
2018-06-20T01:01:05.411Z,95025.33
2018-06-20T01:03:34.060Z,95019.15
2018-06-20T01:06:02.710Z,95023.14
2018-06-20T01:08:31.496Z,95018.35
2018-06-20T01:11:00.157Z,95024.59
2018-06-20T01:13:28.754Z,95026.55
2018-06-20T01:15:57.499Z,95026.47
2018-06-20T01:18:26.265Z,95026.39
2018-06-20T01:20:54.955Z,95029.86
2018-06-20T01:23:23.747Z,95028.06
2018-06-20T01:25:52.415Z,95028.46
2018-06-20T01:28:22.146Z,95025.03
2018-06-20T01:30:52.317Z,95024.86
2018-06-20T01:33:21.856Z,95029.95
2018-06-20T01:35:50.677Z,95030.44
2018-06-20T01:38:19.349Z,95033.92
2018-06-20T01:40:48.010Z,95032.89
2018-06-20T01:43:16.691Z,95034.02
2018-06-20T01:45:46.214Z,95037.31
2018-06-20T01:48:14.886Z,95033.23
2018-06-20T01:50:43.538Z,95032.48
2018-06-20T01:53:12.209Z,95038.14
2018-06-20T01:55:40.861Z,95034.38
2018-06-20T01:58:09.539Z,95031.61
2018-06-20T02:00:38.192Z,95032.09
2018-06-20T02:03:06.917Z,95035.12
2018-06-20T02:05:35.563Z,95035.91
2018-06-20T02:08:04.235Z,95037.66
2018-06-20T02:10:32.878Z,95046.69
2018-06-20T02:13:01.517Z,95052.25
2018-06-20T02:15:30.171Z,95048.86
2018-06-20T02:17:58.821Z,95052.70
2018-06-20T02:20:27.481Z,95056.98
2018-06-20T02:22:56.132Z,95053.22
2018-06-20T02:25:24.747Z,95046.59
2018-06-20T02:27:53.394Z,95053.16
2018-06-20T02:30:22.086Z,95053.66
2018-06-20T02:32:50.755Z,95060.45
2018-06-20T02:35:19.480Z,95070.16
2018-06-20T02:37:48.116Z,95068.05
2018-06-20T02:40:16.742Z,95074.42
2018-06-20T02:42:45.421Z,95073.51
2018-06-20T02:45:14.082Z,95071.06
2018-06-20T02:47:43.923Z,95078.64
2018-06-20T02:50:13.947Z,95083.41
2018-06-20T02:52:42.877Z,95084.48
2018-06-20T02:55:11.659Z,95080.02
2018-06-20T02:57:40.483Z,95088.97
2018-06-20T03:00:09.157Z,95090.59
2018-06-20T03:02:37.794Z,95097.77
2018-06-20T03:05:06.499Z,95102.30
2018-06-20T03:07:35.174Z,95107.55
2018-06-20T03:10:03.893Z,95101.88
2018-06-20T03:12:32.547Z,95097.52
2018-06-20T03:15:01.260Z,95101.66
2018-06-20T03:17:29.907Z,95102.35
2018-06-20T03:19:58.560Z,95108.54
2018-06-20T03:22:27.231Z,95121.55
2018-06-20T03:24:55.954Z,95120.03
2018-06-20T03:27:24.731Z,95121.97
2018-06-20T03:29:53.433Z,95127.44
2018-06-20T03:32:23.142Z,95128.66
2018-06-20T03:34:51.793Z,95129.66
2018-06-20T03:37:20.480Z,95131.70
2018-06-20T03:39:49.159Z,95130.28
2018-06-20T03:42:17.795Z,95135.55
2018-06-20T03:44:46.495Z,95142.94
2018-06-20T03:47:15.137Z,95145.45
2018-06-20T03:49:43.874Z,95150.96
2018-06-20T03:52:12.542Z,95146.81
2018-06-20T03:54:41.209Z,95153.00
2018-06-20T03:57:09.849Z,95151.59
2018-06-20T03:59:38.477Z,95152.11
2018-06-20T04:02:07.082Z,95152.80
2018-06-20T04:04:35.702Z,95145.44
2018-06-20T04:07:04.358Z,95156.84
2018-06-20T04:09:32.990Z,95148.69
2018-06-20T04:12:01.686Z,95144.43
2018-06-20T04:14:30.415Z,95145.26
2018-06-20T04:16:59.125Z,95146.36
2018-06-20T04:19:27.782Z,95146.36
2018-06-20T04:21:56.426Z,95146.59
2018-06-20T04:24:25.108Z,95154.25
2018-06-20T04:26:53.803Z,95150.41
2018-06-20T04:29:22.521Z,95153.34
2018-06-20T04:31:51.168Z,95149.20
2018-06-20T04:34:19.859Z,95157.07
2018-06-20T04:36:48.503Z,95156.16
2018-06-20T04:39:17.182Z,95159.91
2018-06-20T04:41:45.819Z,95162.05
2018-06-20T04:44:14.541Z,95156.98
2018-06-20T04:46:43.187Z,95153.63
2018-06-20T04:49:11.831Z,95162.81
2018-06-20T04:51:40.462Z,95165.82
2018-06-20T04:54:09.154Z,95166.01
2018-06-20T04:56:38.955Z,95169.74
2018-06-20T04:59:07.646Z,95172.31
2018-06-20T05:01:36.287Z,95175.52
2018-06-20T05:04:05.011Z,95179.14
2018-06-20T05:06:33.623Z,95186.20
2018-06-20T05:09:04.347Z,95184.58
2018-06-20T05:11:33.024Z,95181.50
2018-06-20T05:14:01.655Z,95179.52
2018-06-20T05:16:30.291Z,95187.67
2018-06-20T05:18:58.983Z,95190.42
2018-06-20T05:21:27.662Z,95190.84
2018-06-20T05:23:56.471Z,95193.78
2018-06-20T05:26:25.126Z,95198.38
2018-06-20T05:28:53.801Z,95203.18
2018-06-20T05:31:22.535Z,95205.53
2018-06-20T05:33:51.143Z,95203.14
2018-06-20T05:36:19.817Z,95205.92
2018-06-20T05:38:48.591Z,95208.80
2018-06-20T05:41:17.321Z,95208.83
2018-06-20T05:43:45.964Z,95203.63
2018-06-20T05:46:14.601Z,95206.28
2018-06-20T05:48:43.244Z,95212.88
2018-06-20T05:51:11.919Z,95216.19
2018-06-20T05:53:40.920Z,95211.06
2018-06-20T05:56:09.560Z,95204.93
2018-06-20T05:58:38.194Z,95199.58
2018-06-20T06:01:06.875Z,95200.27
2018-06-20T06:03:35.542Z,95206.52
2018-06-20T06:06:15.560Z,95210.33
2018-06-20T06:08:44.791Z,95217.01
2018-06-20T06:11:13.434Z,95212.37
2018-06-20T06:13:42.055Z,95217.15
2018-06-20T06:16:10.838Z,95221.92
2018-06-20T06:18:39.518Z,95217.84
2018-06-20T06:21:08.146Z,95217.23
2018-06-20T06:23:36.811Z,95223.83
2018-06-20T06:26:05.495Z,95223.67
2018-06-20T06:28:34.142Z,95221.27
2018-06-20T06:31:02.805Z,95226.95
2018-06-20T06:33:31.469Z,95222.75
2018-06-20T06:36:00.115Z,95219.94
2018-06-20T06:38:28.878Z,95225.59
2018-06-20T06:40:57.541Z,95225.48
2018-06-20T06:43:26.200Z,95224.38
2018-06-20T06:45:54.863Z,95222.05
2018-06-20T06:48:23.546Z,95226.27
2018-06-20T06:50:52.666Z,95226.00
2018-06-20T06:53:21.305Z,95222.09
2018-06-20T06:58:17.744Z,95226.78
2018-06-20T07:00:46.407Z,95225.84
2018-06-20T07:03:15.055Z,95222.41
2018-06-20T07:05:43.665Z,95217.50
2018-06-20T07:08:12.366Z,95219.31
2018-06-20T07:10:41.353Z,95220.91
2018-06-20T07:13:10.009Z,95219.50
2018-06-20T07:15:38.682Z,95216.55
2018-06-20T07:18:07.350Z,95213.54
2018-06-20T07:20:36.001Z,95217.62
2018-06-20T07:23:04.711Z,95214.78
2018-06-20T07:25:33.975Z,95217.73
2018-06-20T07:28:02.620Z,95215.28
2018-06-20T07:30:31.310Z,95209.50
2018-06-20T07:32:59.982Z,95206.50
2018-06-20T07:35:28.711Z,95211.66
2018-06-20T07:37:57.401Z,95219.08
2018-06-20T07:40:26.028Z,95217.21
2018-06-20T07:42:54.674Z,95215.89
2018-06-20T07:45:23.347Z,95216.91
2018-06-20T07:47:52.010Z,95216.09
2018-06-20T07:50:20.683Z,95210.58
2018-06-20T07:52:49.334Z,95208.95
2018-06-20T07:55:18.088Z,95212.74
2018-06-20T07:57:46.740Z,95203.22
2018-06-20T08:00:20.575Z,95199.58
2018-06-20T08:03:05.619Z,95208.74
2018-06-20T08:05:39.416Z,95202.71
2018-06-20T08:08:13.564Z,95207.07
2018-06-20T08:10:47.272Z,95200.12
2018-06-20T08:13:21.183Z,95195.72
2018-06-20T08:15:54.893Z,95205.47
2018-06-20T08:18:28.747Z,95198.13
2018-06-20T08:20:57.484Z,95201.11
2018-06-20T08:23:26.295Z,95204.66
2018-06-20T08:25:54.943Z,95201.70
2018-06-20T08:28:23.611Z,95194.81
2018-06-20T08:30:52.279Z,95195.35
2018-06-20T08:33:20.970Z,95196.35
2018-06-20T08:35:49.657Z,95187.38
2018-06-20T08:38:18.352Z,95187.05
2018-06-20T08:40:47.201Z,95187.31
2018-06-20T08:43:15.826Z,95181.88
2018-06-20T08:45:44.571Z,95175.28
2018-06-20T08:48:13.182Z,95172.69
2018-06-20T08:50:41.881Z,95172.38
2018-06-20T08:53:10.591Z,95177.91
2018-06-20T08:55:39.198Z,95173.64
2018-06-20T08:58:07.892Z,95175.35
2018-06-20T09:00:41.820Z,95171.72
2018-06-20T09:03:10.570Z,95176.06
2018-06-20T09:05:44.311Z,95175.83
2018-06-20T09:08:18.170Z,95175.94
2018-06-20T09:11:53.358Z,95163.92
2018-06-20T09:14:21.983Z,95167.91
2018-06-20T09:16:55.653Z,95169.58
2018-06-20T09:19:29.384Z,95162.91
2018-06-20T09:21:58.023Z,95166.93
2018-06-20T09:24:26.945Z,95164.33
2018-06-20T09:26:55.640Z,95159.50
2018-06-20T09:29:24.280Z,95153.41
2018-06-20T09:31:52.918Z,95155.06
2018-06-20T09:34:21.537Z,95152.42
2018-06-20T09:36:50.145Z,95147.09
2018-06-20T09:39:18.918Z,95148.26
2018-06-20T09:41:47.568Z,95144.06
2018-06-20T09:44:16.236Z,95143.55
2018-06-20T09:46:59.432Z,95139.54
2018-06-20T09:49:28.019Z,95133.17
2018-06-20T09:51:57.236Z,95136.11
2018-06-20T09:54:25.938Z,95143.34
2018-06-20T09:56:54.591Z,95136.94
2018-06-20T09:59:28.502Z,95137.17
2018-06-20T10:02:02.311Z,95133.97
2018-06-20T10:04:36.145Z,95124.36
2018-06-20T10:07:09.931Z,95140.12
2018-06-20T10:09:43.848Z,95129.70
2018-06-20T10:12:17.495Z,95128.38
2018-06-20T10:14:46.199Z,95134.73
2018-06-20T10:17:14.831Z,95136.07
2018-06-20T10:19:43.444Z,95132.28
2018-06-20T10:22:12.070Z,95129.87
2018-06-20T10:24:40.724Z,95126.44
2018-06-20T10:27:09.378Z,95129.63
2018-06-20T10:29:38.124Z,95136.57
2018-06-20T10:32:06.734Z,95118.45
2018-06-20T10:34:35.360Z,95121.16
2018-06-20T10:37:04.108Z,95111.80
2018-06-20T10:39:32.790Z,95123.59
2018-06-20T10:42:01.453Z,95108.88
2018-06-20T10:44:30.099Z,95107.23
2018-06-20T10:47:03.899Z,95109.97
2018-06-20T10:49:32.628Z,95097.66
2018-06-20T10:52:01.294Z,95108.58
2018-06-20T10:54:29.974Z,95104.28
2018-06-20T10:57:03.788Z,95106.16
2018-06-20T10:59:37.617Z,95101.89
2018-06-20T11:02:11.428Z,95098.91
2018-06-20T11:04:45.483Z,95092.61
2018-06-20T11:07:19.324Z,95094.13
2018-06-20T11:09:53.207Z,95092.14
2018-06-20T11:12:27.069Z,95094.59
2018-06-20T11:14:55.755Z,95089.11
2018-06-20T11:17:24.431Z,95092.20
2018-06-20T11:19:53.232Z,95090.12
2018-06-20T11:22:21.934Z,95089.12
2018-06-20T11:24:50.603Z,95085.05
2018-06-20T11:27:19.274Z,95088.48
2018-06-20T11:29:47.922Z,95087.96
2018-06-20T11:32:16.891Z,95091.97
2018-06-20T11:34:45.522Z,95085.73
2018-06-20T11:37:14.257Z,95091.30
2018-06-20T11:39:42.919Z,95095.98
2018-06-20T11:42:11.588Z,95092.95
2018-06-20T11:44:40.254Z,95086.25
2018-06-20T11:48:12.573Z,95084.06
2018-06-20T11:50:41.264Z,95091.52
2018-06-20T11:53:11.270Z,95091.72
2018-06-20T11:55:41.123Z,95077.92
2018-06-20T11:58:14.967Z,95078.05
2018-06-20T12:00:48.893Z,95084.81
2018-06-20T12:03:22.859Z,95076.82
2018-06-20T12:05:56.683Z,95075.27
2018-06-20T12:08:30.442Z,95086.44
2018-06-20T12:11:04.082Z,95080.32
2018-06-20T12:13:37.972Z,95086.02
2018-06-20T12:16:11.831Z,95076.65
2018-06-20T12:18:45.739Z,95079.95
2018-06-20T12:21:19.533Z,95077.77
2018-06-20T12:23:53.399Z,95081.80
2018-06-20T12:26:27.142Z,95085.12
2018-06-20T12:29:00.813Z,95066.92
2018-06-20T12:31:34.641Z,95073.75
2018-06-20T12:34:08.502Z,95072.45
2018-06-20T12:36:42.403Z,95069.13
2018-06-20T12:39:10.129Z,95069.10
2018-06-20T12:41:43.921Z,95064.14
2018-06-20T12:44:17.773Z,95063.67
2018-06-20T12:46:54.259Z,95068.94
2018-06-20T12:49:26.943Z,95065.34
2018-06-20T12:51:55.622Z,95056.98
2018-06-20T12:54:24.287Z,95064.14
2018-06-20T12:56:52.941Z,95058.28
2018-06-20T12:59:21.661Z,95054.95
2018-06-20T13:01:50.362Z,95053.20
2018-06-20T13:04:19.576Z,95054.21
2018-06-20T13:06:48.235Z,95050.45
2018-06-20T13:09:16.920Z,95056.78
2018-06-20T13:11:45.557Z,95048.66
2018-06-20T13:14:14.192Z,95047.84
2018-06-20T13:16:43.480Z,95044.56
2018-06-20T13:19:12.109Z,95042.38
2018-06-20T13:21:40.823Z,95043.00
2018-06-20T13:24:09.444Z,95043.31
2018-06-20T13:26:38.092Z,95036.84
2018-06-20T13:29:06.838Z,95029.48
2018-06-20T13:31:41.019Z,95042.30
2018-06-20T13:34:15.319Z,95033.00
2018-06-20T13:36:49.258Z,95040.48
2018-06-20T13:39:23.143Z,95031.87
2018-06-20T13:41:56.810Z,95023.64
2018-06-20T13:44:27.103Z,95023.91
2018-06-20T13:47:01.032Z,95017.00
2018-06-20T13:49:29.735Z,95020.26
2018-06-20T13:51:58.446Z,95012.73
2018-06-20T13:54:27.438Z,95017.47
2018-06-20T13:56:56.083Z,95015.42
2018-06-20T13:59:24.991Z,95015.75
2018-06-20T14:01:53.734Z,95015.09
2018-06-20T14:04:22.425Z,95009.73
2018-06-20T14:06:51.794Z,95007.02
2018-06-20T14:09:20.453Z,95009.22
2018-06-20T14:11:49.102Z,95007.70
2018-06-20T14:14:17.712Z,95000.48
2018-06-20T14:16:46.447Z,95003.89
2018-06-20T14:19:15.139Z,95003.09
2018-06-20T14:21:43.774Z,95000.44
2018-06-20T14:24:12.673Z,95005.59
2018-06-20T14:26:41.912Z,95002.17
2018-06-20T14:29:11.227Z,95002.58
2018-06-20T14:31:44.970Z,95000.22
2018-06-20T14:35:22.531Z,94995.23
2018-06-20T14:37:56.368Z,94993.69
2018-06-20T14:41:28.705Z,94986.95
2018-06-20T14:44:02.550Z,94994.27
2018-06-20T14:46:35.230Z,94984.97
2018-06-20T14:49:03.994Z,94977.45
2018-06-20T14:51:32.743Z,94981.89
2018-06-20T14:54:01.443Z,94979.57
2018-06-20T14:56:30.927Z,94980.61
2018-06-20T14:58:59.618Z,94968.12
2018-06-20T15:01:28.306Z,94970.81
2018-06-20T15:03:57.131Z,94977.70
2018-06-20T15:06:25.890Z,94972.38
2018-06-20T15:08:54.555Z,94959.48
2018-06-20T15:11:23.162Z,94961.33
2018-06-20T15:13:51.881Z,94962.94
2018-06-20T15:16:25.698Z,94959.41
2018-06-20T15:18:54.367Z,94952.77
2018-06-20T15:21:22.998Z,94952.02
2018-06-20T15:23:51.647Z,94958.48
2018-06-20T15:26:25.278Z,94958.74
2018-06-20T15:28:59.256Z,94956.61
2018-06-20T15:31:33.135Z,94955.33
2018-06-20T15:34:07.054Z,94954.17
2018-06-20T15:36:40.792Z,94953.73
2018-06-20T15:39:09.682Z,94952.70
2018-06-20T15:41:38.394Z,94946.56
2018-06-20T15:44:07.405Z,94956.36
2018-06-20T15:46:36.078Z,94950.13
2018-06-20T15:49:05.254Z,94947.56
2018-06-20T15:51:38.116Z,94947.98
2018-06-20T15:54:06.747Z,94943.87
2018-06-20T15:56:35.441Z,94955.08
2018-06-20T15:59:04.117Z,94949.94
2018-06-20T16:01:32.835Z,94952.77
2018-06-20T16:04:01.528Z,94947.98
2018-06-20T16:06:30.172Z,94949.51
2018-06-20T16:09:04.077Z,94947.59
2018-06-20T16:11:32.716Z,94955.23
2018-06-20T16:14:01.402Z,94951.75
2018-06-20T16:16:30.088Z,94952.37
2018-06-20T16:19:03.962Z,94951.42
2018-06-20T16:21:37.714Z,94954.48
2018-06-20T16:24:11.543Z,94954.61
2018-06-20T16:26:45.355Z,94956.20
2018-06-20T16:29:19.537Z,94962.58
2018-06-20T16:31:48.337Z,94958.19
2018-06-20T16:34:17.161Z,94958.59
2018-06-20T16:36:45.796Z,94965.06
2018-06-20T16:39:14.468Z,94960.60
2018-06-20T16:41:43.131Z,94964.27
2018-06-20T16:44:11.801Z,94957.05
2018-06-20T16:46:40.438Z,94965.53
2018-06-20T16:49:09.344Z,94970.95
2018-06-20T16:51:38.071Z,94972.20
2018-06-20T16:54:06.873Z,94970.66
2018-06-20T16:56:35.535Z,94976.75
2018-06-20T16:59:04.212Z,94974.52
2018-06-20T17:01:38.054Z,94976.88
2018-06-20T17:04:06.754Z,94979.58
2018-06-20T17:06:35.640Z,94974.86
2018-06-20T17:09:06.339Z,94977.95
2018-06-20T17:11:34.994Z,94968.60
2018-06-20T17:14:08.937Z,94974.11
2018-06-20T17:16:42.825Z,94974.48
2018-06-20T17:19:16.771Z,94967.66
2018-06-20T17:21:50.632Z,94971.48
2018-06-20T17:24:24.538Z,94976.98
2018-06-20T17:26:53.642Z,94972.79
2018-06-20T17:29:22.394Z,94978.33
2018-06-20T17:31:51.968Z,94976.64
2018-06-20T17:34:20.670Z,94984.09
2018-06-20T17:36:49.367Z,94984.16
2018-06-20T17:39:18.121Z,94991.23
2018-06-20T17:41:47.706Z,94991.55
2018-06-20T17:44:16.460Z,94998.81
2018-06-20T17:46:45.108Z,94997.01
2018-06-20T17:49:14.520Z,94998.44
2018-06-20T17:51:43.290Z,94993.39
2018-06-20T17:54:11.987Z,94992.41
2018-06-20T17:56:40.653Z,94993.23
2018-06-20T17:59:10.557Z,94990.34
2018-06-20T18:01:39.270Z,94995.41
2018-06-20T18:04:07.928Z,94997.30
2018-06-20T18:06:42.575Z,95003.44
2018-06-20T18:09:16.381Z,95003.44
2018-06-20T18:11:50.201Z,95000.76
2018-06-20T18:14:23.979Z,95003.11
2018-06-20T18:16:58.924Z,95007.39
2018-06-20T18:19:28.142Z,95008.16
2018-06-20T18:21:56.892Z,95006.53
2018-06-20T18:24:26.190Z,95005.98
2018-06-20T18:26:55.098Z,95013.68
2018-06-20T18:29:23.736Z,95019.55
2018-06-20T18:31:52.471Z,95022.19
2018-06-20T18:34:21.140Z,95020.00
2018-06-20T18:36:49.866Z,95015.41
2018-06-20T18:39:18.550Z,95022.03
2018-06-20T18:41:47.188Z,95026.55
2018-06-20T18:44:15.852Z,95033.16
2018-06-20T18:46:44.680Z,95033.98
2018-06-20T18:49:13.315Z,95038.48
2018-06-20T18:51:41.979Z,95034.48
2018-06-20T18:54:11.811Z,95040.56
2018-06-20T18:56:40.604Z,95043.22
2018-06-20T18:59:14.606Z,95042.41
2018-06-20T19:02:49.099Z,95045.80
2018-06-20T19:05:22.880Z,95044.67
2018-06-20T19:07:56.693Z,95047.12
2018-06-20T19:10:25.391Z,95054.80
2018-06-20T19:12:54.070Z,95052.59
2018-06-20T19:15:23.170Z,95058.23
2018-06-20T19:17:52.038Z,95055.48
2018-06-20T19:20:20.680Z,95058.95
2018-06-20T19:22:49.406Z,95059.92
2018-06-20T19:25:18.080Z,95055.80
2018-06-20T19:27:46.820Z,95052.81
2018-06-20T19:30:16.853Z,95054.23
2018-06-20T19:32:45.542Z,95055.42
2018-06-20T19:35:15.121Z,95061.70
2018-06-20T19:37:43.867Z,95060.91
2018-06-20T19:40:12.577Z,95064.31
2018-06-20T19:42:41.319Z,95057.61
2018-06-20T19:45:10.044Z,95059.64
2018-06-20T19:47:38.813Z,95058.38
2018-06-20T19:50:07.473Z,95059.00
2018-06-20T19:52:36.577Z,95063.11
2018-06-20T19:55:05.288Z,95054.61
2018-06-20T19:57:34.705Z,95050.41
2018-06-20T20:00:05.608Z,95054.94
2018-06-20T20:02:34.734Z,95059.34
2018-06-20T20:05:03.476Z,95058.52
2018-06-20T20:07:32.131Z,95060.60
2018-06-20T20:10:00.828Z,95061.89
2018-06-20T20:12:29.457Z,95063.22
